sensor_id;sensor_type;location;lat;lon;timestamp;P1;durP1;ratioP1;P2;durP2;ratioP2
23470;SDS011;11908;50.806;4.424;2022-12-28T00:01:19;8.57;;;4.10;;
23470;SDS011;11908;50.806;4.424;2022-12-28T00:03:47;9.15;;;4.20;;
23470;SDS011;11908;50.806;4.424;2022-12-28T00:06:13;10.52;;;4.32;;
23470;SDS011;11908;50.806;4.424;2022-12-28T00:08:40;10.10;;;4.57;;
23470;SDS011;11908;50.806;4.424;2022-12-28T00:11:13;7.82;;;4.07;;
23470;SDS011;11908;50.806;4.424;2022-12-28T00:13:40;9.25;;;4.30;;
23470;SDS011;11908;50.806;4.424;2022-12-28T00:16:11;9.38;;;3.97;;
23470;SDS011;11908;50.806;4.424;2022-12-28T00:18:59;9.18;;;4.15;;
23470;SDS011;11908;50.806;4.424;2022-12-28T00:21:26;9.70;;;4.13;;
23470;SDS011;11908;50.806;4.424;2022-12-28T00:23:53;6.40;;;4.13;;
23470;SDS011;11908;50.806;4.424;2022-12-28T00:26:20;7.78;;;4.50;;
23470;SDS011;11908;50.806;4.424;2022-12-28T00:28:46;9.48;;;4.80;;
23470;SDS011;11908;50.806;4.424;2022-12-28T00:31:13;7.85;;;4.45;;
23470;SDS011;11908;50.806;4.424;2022-12-28T00:33:39;9.02;;;4.65;;
23470;SDS011;11908;50.806;4.424;2022-12-28T00:36:04;12.57;;;4.72;;
23470;SDS011;11908;50.806;4.424;2022-12-28T00:38:33;8.70;;;4.70;;
23470;SDS011;11908;50.806;4.424;2022-12-28T00:40:59;7.22;;;4.70;;
23470;SDS011;11908;50.806;4.424;2022-12-28T00:43:26;6.57;;;4.00;;
23470;SDS011;11908;50.806;4.424;2022-12-28T00:45:51;9.07;;;4.88;;
23470;SDS011;11908;50.806;4.424;2022-12-28T00:48:17;8.90;;;4.57;;
23470;SDS011;11908;50.806;4.424;2022-12-28T00:50:43;6.63;;;4.07;;
23470;SDS011;11908;50.806;4.424;2022-12-28T00:53:09;12.32;;;4.88;;
23470;SDS011;11908;50.806;4.424;2022-12-28T00:55:36;10.88;;;4.28;;
23470;SDS011;11908;50.806;4.424;2022-12-28T00:58:02;8.25;;;4.90;;
23470;SDS011;11908;50.806;4.424;2022-12-28T01:00:28;12.38;;;4.57;;
23470;SDS011;11908;50.806;4.424;2022-12-28T01:02:54;5.65;;;3.88;;
23470;SDS011;11908;50.806;4.424;2022-12-28T01:05:21;5.80;;;4.28;;
23470;SDS011;11908;50.806;4.424;2022-12-28T01:07:47;8.65;;;4.75;;
23470;SDS011;11908;50.806;4.424;2022-12-28T01:10:13;7.30;;;3.95;;
23470;SDS011;11908;50.806;4.424;2022-12-28T01:12:39;7.10;;;4.28;;
23470;SDS011;11908;50.806;4.424;2022-12-28T01:15:05;10.43;;;4.88;;
23470;SDS011;11908;50.806;4.424;2022-12-28T01:17:32;7.10;;;4.53;;
23470;SDS011;11908;50.806;4.424;2022-12-28T01:19:58;11.80;;;4.68;;
23470;SDS011;11908;50.806;4.424;2022-12-28T01:22:24;6.18;;;4.55;;
23470;SDS011;11908;50.806;4.424;2022-12-28T01:24:50;6.45;;;4.28;;
23470;SDS011;11908;50.806;4.424;2022-12-28T01:27:16;7.28;;;5.03;;
23470;SDS011;11908;50.806;4.424;2022-12-28T01:29:42;8.63;;;4.50;;
23470;SDS011;11908;50.806;4.424;2022-12-28T01:32:08;8.52;;;4.60;;
23470;SDS011;11908;50.806;4.424;2022-12-28T01:34:34;6.28;;;4.60;;
23470;SDS011;11908;50.806;4.424;2022-12-28T01:36:59;10.10;;;4.38;;
23470;SDS011;11908;50.806;4.424;2022-12-28T01:39:25;7.05;;;4.32;;
23470;SDS011;11908;50.806;4.424;2022-12-28T01:41:51;8.07;;;4.40;;
23470;SDS011;11908;50.806;4.424;2022-12-28T01:46:52;7.60;;;4.32;;
23470;SDS011;11908;50.806;4.424;2022-12-28T01:57:44;7.38;;;4.47;;
23470;SDS011;11908;50.806;4.424;2022-12-28T02:00:15;8.38;;;4.88;;
23470;SDS011;11908;50.806;4.424;2022-12-28T02:02:43;7.47;;;4.40;;
23470;SDS011;11908;50.806;4.424;2022-12-28T02:05:13;8.45;;;5.30;;
23470;SDS011;11908;50.806;4.424;2022-12-28T02:07:42;8.10;;;4.75;;
23470;SDS011;11908;50.806;4.424;2022-12-28T02:10:27;11.07;;;5.18;;
23470;SDS011;11908;50.806;4.424;2022-12-28T02:12:55;9.50;;;4.78;;
23470;SDS011;11908;50.806;4.424;2022-12-28T02:15:21;10.30;;;5.10;;
23470;SDS011;11908;50.806;4.424;2022-12-28T02:17:47;9.63;;;5.45;;
23470;SDS011;11908;50.806;4.424;2022-12-28T02:20:12;8.10;;;5.20;;
23470;SDS011;11908;50.806;4.424;2022-12-28T02:31:53;8.18;;;4.70;;
23470;SDS011;11908;50.806;4.424;2022-12-28T02:34:23;7.40;;;4.32;;
23470;SDS011;11908;50.806;4.424;2022-12-28T02:36:58;6.38;;;4.40;;
23470;SDS011;11908;50.806;4.424;2022-12-28T02:39:30;7.53;;;4.78;;
23470;SDS011;11908;50.806;4.424;2022-12-28T02:42:10;9.93;;;4.97;;
23470;SDS011;11908;50.806;4.424;2022-12-28T02:44:37;5.07;;;4.47;;
23470;SDS011;11908;50.806;4.424;2022-12-28T02:47:21;6.32;;;4.53;;
23470;SDS011;11908;50.806;4.424;2022-12-28T02:50:07;9.65;;;4.25;;
23470;SDS011;11908;50.806;4.424;2022-12-28T03:04:03;7.05;;;4.10;;
23470;SDS011;11908;50.806;4.424;2022-12-28T03:12:31;6.32;;;4.88;;
23470;SDS011;11908;50.806;4.424;2022-12-28T03:15:09;8.32;;;5.00;;
23470;SDS011;11908;50.806;4.424;2022-12-28T03:20:25;11.13;;;4.28;;
23470;SDS011;11908;50.806;4.424;2022-12-28T03:23:14;9.32;;;4.75;;
23470;SDS011;11908;50.806;4.424;2022-12-28T03:26:00;8.68;;;4.28;;
23470;SDS011;11908;50.806;4.424;2022-12-28T03:28:47;8.05;;;4.47;;
23470;SDS011;11908;50.806;4.424;2022-12-28T03:31:32;9.80;;;4.45;;
23470;SDS011;11908;50.806;4.424;2022-12-28T03:33:59;8.73;;;3.88;;
23470;SDS011;11908;50.806;4.424;2022-12-28T03:42:10;10.02;;;4.57;;
23470;SDS011;11908;50.806;4.424;2022-12-28T03:45:01;7.70;;;4.22;;
23470;SDS011;11908;50.806;4.424;2022-12-28T03:47:48;9.27;;;4.32;;
23470;SDS011;11908;50.806;4.424;2022-12-28T03:50:16;6.65;;;3.78;;
23470;SDS011;11908;50.806;4.424;2022-12-28T03:52:43;9.57;;;4.35;;
23470;SDS011;11908;50.806;4.424;2022-12-28T03:55:09;7.70;;;4.65;;
23470;SDS011;11908;50.806;4.424;2022-12-28T03:57:37;12.00;;;4.15;;
23470;SDS011;11908;50.806;4.424;2022-12-28T04:00:04;7.53;;;4.43;;
23470;SDS011;11908;50.806;4.424;2022-12-28T04:02:30;7.60;;;4.45;;
23470;SDS011;11908;50.806;4.424;2022-12-28T04:04:56;10.90;;;4.45;;
23470;SDS011;11908;50.806;4.424;2022-12-28T04:07:22;14.57;;;5.82;;
23470;SDS011;11908;50.806;4.424;2022-12-28T04:09:47;8.20;;;4.45;;
23470;SDS011;11908;50.806;4.424;2022-12-28T04:12:13;12.55;;;4.75;;
23470;SDS011;11908;50.806;4.424;2022-12-28T04:14:39;8.05;;;5.10;;
23470;SDS011;11908;50.806;4.424;2022-12-28T04:17:05;9.48;;;4.90;;
23470;SDS011;11908;50.806;4.424;2022-12-28T04:19:30;11.13;;;4.60;;
23470;SDS011;11908;50.806;4.424;2022-12-28T04:21:56;6.85;;;4.43;;
23470;SDS011;11908;50.806;4.424;2022-12-28T04:24:22;7.90;;;4.85;;
23470;SDS011;11908;50.806;4.424;2022-12-28T04:26:47;10.70;;;4.82;;
23470;SDS011;11908;50.806;4.424;2022-12-28T04:29:13;10.77;;;4.88;;
23470;SDS011;11908;50.806;4.424;2022-12-28T04:31:38;9.88;;;4.22;;
23470;SDS011;11908;50.806;4.424;2022-12-28T04:34:04;8.38;;;5.00;;
23470;SDS011;11908;50.806;4.424;2022-12-28T04:36:30;14.48;;;5.10;;
23470;SDS011;11908;50.806;4.424;2022-12-28T04:38:57;18.25;;;5.38;;
23470;SDS011;11908;50.806;4.424;2022-12-28T04:41:23;8.93;;;4.53;;
23470;SDS011;11908;50.806;4.424;2022-12-28T04:43:49;11.98;;;4.60;;
23470;SDS011;11908;50.806;4.424;2022-12-28T04:46:15;13.05;;;4.80;;
23470;SDS011;11908;50.806;4.424;2022-12-28T04:48:41;7.70;;;4.15;;
23470;SDS011;11908;50.806;4.424;2022-12-28T04:53:49;11.20;;;4.55;;
23470;SDS011;11908;50.806;4.424;2022-12-28T04:56:16;9.70;;;4.47;;
23470;SDS011;11908;50.806;4.424;2022-12-28T04:58:43;8.70;;;4.32;;
23470;SDS011;11908;50.806;4.424;2022-12-28T05:01:12;13.15;;;4.90;;
23470;SDS011;11908;50.806;4.424;2022-12-28T05:03:39;12.48;;;4.63;;
23470;SDS011;11908;50.806;4.424;2022-12-28T05:06:07;9.63;;;3.78;;
23470;SDS011;11908;50.806;4.424;2022-12-28T05:08:36;8.73;;;4.53;;
23470;SDS011;11908;50.806;4.424;2022-12-28T05:11:03;10.50;;;4.03;;
23470;SDS011;11908;50.806;4.424;2022-12-28T05:13:30;8.20;;;4.15;;
23470;SDS011;11908;50.806;4.424;2022-12-28T05:16:00;14.10;;;4.40;;
23470;SDS011;11908;50.806;4.424;2022-12-28T05:18:27;9.38;;;4.47;;
23470;SDS011;11908;50.806;4.424;2022-12-28T05:21:26;8.80;;;4.05;;
23470;SDS011;11908;50.806;4.424;2022-12-28T05:23:46;11.63;;;3.78;;
23470;SDS011;11908;50.806;4.424;2022-12-28T05:26:13;7.45;;;3.42;;
23470;SDS011;11908;50.806;4.424;2022-12-28T05:28:41;7.60;;;3.33;;
23470;SDS011;11908;50.806;4.424;2022-12-28T05:31:09;11.07;;;3.55;;
23470;SDS011;11908;50.806;4.424;2022-12-28T05:33:36;5.43;;;3.60;;
23470;SDS011;11908;50.806;4.424;2022-12-28T05:36:06;7.45;;;3.30;;
23470;SDS011;11908;50.806;4.424;2022-12-28T05:38:36;5.85;;;3.38;;
23470;SDS011;11908;50.806;4.424;2022-12-28T05:41:10;6.55;;;3.55;;
23470;SDS011;11908;50.806;4.424;2022-12-28T05:43:40;9.02;;;3.95;;
23470;SDS011;11908;50.806;4.424;2022-12-28T05:46:08;9.20;;;3.80;;
23470;SDS011;11908;50.806;4.424;2022-12-28T05:48:36;6.80;;;3.13;;
23470;SDS011;11908;50.806;4.424;2022-12-28T05:51:07;8.38;;;2.80;;
23470;SDS011;11908;50.806;4.424;2022-12-28T05:53:35;6.68;;;2.70;;
23470;SDS011;11908;50.806;4.424;2022-12-28T05:58:29;6.63;;;2.30;;
23470;SDS011;11908;50.806;4.424;2022-12-28T06:03:30;11.52;;;2.88;;
23470;SDS011;11908;50.806;4.424;2022-12-28T06:05:56;6.90;;;2.38;;
23470;SDS011;11908;50.806;4.424;2022-12-28T06:08:26;7.07;;;2.50;;
23470;SDS011;11908;50.806;4.424;2022-12-28T06:10:52;7.10;;;2.30;;
23470;SDS011;11908;50.806;4.424;2022-12-28T06:13:18;9.90;;;2.70;;
23470;SDS011;11908;50.806;4.424;2022-12-28T06:15:43;8.23;;;2.80;;
23470;SDS011;11908;50.806;4.424;2022-12-28T06:18:09;11.55;;;2.40;;
23470;SDS011;11908;50.806;4.424;2022-12-28T06:20:34;9.05;;;2.60;;
23470;SDS011;11908;50.806;4.424;2022-12-28T06:23:00;8.05;;;2.70;;
23470;SDS011;11908;50.806;4.424;2022-12-28T06:25:26;9.18;;;2.38;;
23470;SDS011;11908;50.806;4.424;2022-12-28T06:27:52;11.38;;;2.80;;
23470;SDS011;11908;50.806;4.424;2022-12-28T06:30:17;13.65;;;2.60;;
23470;SDS011;11908;50.806;4.424;2022-12-28T06:32:43;6.90;;;2.40;;
23470;SDS011;11908;50.806;4.424;2022-12-28T06:35:08;12.90;;;2.42;;
23470;SDS011;11908;50.806;4.424;2022-12-28T06:37:34;7.88;;;2.20;;
23470;SDS011;11908;50.806;4.424;2022-12-28T06:40:00;5.60;;;2.22;;
23470;SDS011;11908;50.806;4.424;2022-12-28T06:42:25;7.50;;;2.60;;
23470;SDS011;11908;50.806;4.424;2022-12-28T06:44:51;6.68;;;2.17;;
23470;SDS011;11908;50.806;4.424;2022-12-28T06:47:17;7.57;;;2.40;;
23470;SDS011;11908;50.806;4.424;2022-12-28T06:49:42;5.32;;;1.77;;
23470;SDS011;11908;50.806;4.424;2022-12-28T06:52:08;5.72;;;2.13;;
23470;SDS011;11908;50.806;4.424;2022-12-28T06:54:34;10.00;;;2.58;;
23470;SDS011;11908;50.806;4.424;2022-12-28T06:56:59;10.57;;;1.75;;
23470;SDS011;11908;50.806;4.424;2022-12-28T06:59:26;8.98;;;1.88;;
23470;SDS011;11908;50.806;4.424;2022-12-28T07:01:51;8.50;;;1.90;;
23470;SDS011;11908;50.806;4.424;2022-12-28T07:04:17;9.05;;;2.50;;
23470;SDS011;11908;50.806;4.424;2022-12-28T07:06:43;8.90;;;2.03;;
23470;SDS011;11908;50.806;4.424;2022-12-28T07:09:10;11.68;;;2.47;;
23470;SDS011;11908;50.806;4.424;2022-12-28T07:11:38;6.82;;;2.00;;
23470;SDS011;11908;50.806;4.424;2022-12-28T07:14:03;6.85;;;2.30;;
23470;SDS011;11908;50.806;4.424;2022-12-28T07:16:29;5.82;;;1.85;;
23470;SDS011;11908;50.806;4.424;2022-12-28T07:18:56;10.63;;;2.40;;
23470;SDS011;11908;50.806;4.424;2022-12-28T07:21:24;6.13;;;2.15;;
23470;SDS011;11908;50.806;4.424;2022-12-28T07:23:52;11.23;;;2.15;;
23470;SDS011;11908;50.806;4.424;2022-12-28T07:26:20;9.77;;;2.35;;
23470;SDS011;11908;50.806;4.424;2022-12-28T07:28:48;8.52;;;2.80;;
23470;SDS011;11908;50.806;4.424;2022-12-28T07:31:16;7.70;;;2.40;;
23470;SDS011;11908;50.806;4.424;2022-12-28T07:33:44;8.38;;;2.80;;
23470;SDS011;11908;50.806;4.424;2022-12-28T07:36:12;8.90;;;2.42;;
23470;SDS011;11908;50.806;4.424;2022-12-28T07:38:40;7.82;;;2.95;;
23470;SDS011;11908;50.806;4.424;2022-12-28T07:41:07;8.77;;;3.17;;
23470;SDS011;11908;50.806;4.424;2022-12-28T07:44:00;15.63;;;3.10;;
23470;SDS011;11908;50.806;4.424;2022-12-28T07:46:27;9.52;;;2.70;;
23470;SDS011;11908;50.806;4.424;2022-12-28T07:48:54;6.65;;;3.05;;
23470;SDS011;11908;50.806;4.424;2022-12-28T07:53:54;11.13;;;3.28;;
23470;SDS011;11908;50.806;4.424;2022-12-28T07:56:22;7.25;;;3.40;;
23470;SDS011;11908;50.806;4.424;2022-12-28T07:58:49;12.40;;;4.05;;
23470;SDS011;11908;50.806;4.424;2022-12-28T08:01:17;13.13;;;4.95;;
23470;SDS011;11908;50.806;4.424;2022-12-28T08:03:43;7.10;;;3.40;;
23470;SDS011;11908;50.806;4.424;2022-12-28T08:06:11;9.05;;;3.40;;
23470;SDS011;11908;50.806;4.424;2022-12-28T08:08:43;8.45;;;3.90;;
23470;SDS011;11908;50.806;4.424;2022-12-28T08:11:11;8.00;;;3.80;;
23470;SDS011;11908;50.806;4.424;2022-12-28T08:13:42;10.68;;;4.40;;
23470;SDS011;11908;50.806;4.424;2022-12-28T08:16:10;10.27;;;4.10;;
23470;SDS011;11908;50.806;4.424;2022-12-28T08:18:37;9.60;;;4.18;;
23470;SDS011;11908;50.806;4.424;2022-12-28T08:21:05;9.30;;;4.78;;
23470;SDS011;11908;50.806;4.424;2022-12-28T08:23:41;7.57;;;4.03;;
23470;SDS011;11908;50.806;4.424;2022-12-28T08:26:11;7.85;;;4.20;;
23470;SDS011;11908;50.806;4.424;2022-12-28T08:28:38;7.53;;;4.60;;
23470;SDS011;11908;50.806;4.424;2022-12-28T08:31:05;13.15;;;5.20;;
23470;SDS011;11908;50.806;4.424;2022-12-28T08:33:35;9.57;;;4.70;;
23470;SDS011;11908;50.806;4.424;2022-12-28T08:36:02;10.70;;;5.43;;
23470;SDS011;11908;50.806;4.424;2022-12-28T08:38:28;8.45;;;5.05;;
23470;SDS011;11908;50.806;4.424;2022-12-28T08:40:55;13.95;;;5.10;;
23470;SDS011;11908;50.806;4.424;2022-12-28T08:43:22;6.50;;;5.03;;
23470;SDS011;11908;50.806;4.424;2022-12-28T08:45:58;10.82;;;4.82;;
23470;SDS011;11908;50.806;4.424;2022-12-28T08:48:25;13.27;;;6.25;;
23470;SDS011;11908;50.806;4.424;2022-12-28T08:50:52;11.80;;;5.57;;
23470;SDS011;11908;50.806;4.424;2022-12-28T08:53:18;12.27;;;5.22;;
23470;SDS011;11908;50.806;4.424;2022-12-28T08:55:46;12.00;;;5.60;;
23470;SDS011;11908;50.806;4.424;2022-12-28T08:58:12;11.57;;;5.15;;
23470;SDS011;11908;50.806;4.424;2022-12-28T09:00:38;9.43;;;5.05;;
23470;SDS011;11908;50.806;4.424;2022-12-28T09:03:03;8.13;;;4.65;;
23470;SDS011;11908;50.806;4.424;2022-12-28T09:05:29;11.82;;;5.20;;
23470;SDS011;11908;50.806;4.424;2022-12-28T09:07:55;9.43;;;5.63;;
23470;SDS011;11908;50.806;4.424;2022-12-28T09:10:20;13.50;;;5.65;;
23470;SDS011;11908;50.806;4.424;2022-12-28T09:12:46;13.50;;;6.07;;
23470;SDS011;11908;50.806;4.424;2022-12-28T09:15:12;13.85;;;5.30;;
23470;SDS011;11908;50.806;4.424;2022-12-28T09:17:37;9.18;;;5.75;;
23470;SDS011;11908;50.806;4.424;2022-12-28T09:20:03;15.32;;;5.90;;
23470;SDS011;11908;50.806;4.424;2022-12-28T09:22:29;10.45;;;5.53;;
23470;SDS011;11908;50.806;4.424;2022-12-28T09:24:55;18.23;;;6.07;;
23470;SDS011;11908;50.806;4.424;2022-12-28T09:27:21;14.05;;;5.90;;
23470;SDS011;11908;50.806;4.424;2022-12-28T09:29:47;13.07;;;5.93;;
23470;SDS011;11908;50.806;4.424;2022-12-28T09:32:12;15.80;;;6.30;;
23470;SDS011;11908;50.806;4.424;2022-12-28T09:34:38;13.20;;;4.78;;
23470;SDS011;11908;50.806;4.424;2022-12-28T09:37:04;16.08;;;6.30;;
23470;SDS011;11908;50.806;4.424;2022-12-28T09:39:31;13.27;;;5.10;;
23470;SDS011;11908;50.806;4.424;2022-12-28T09:41:58;10.45;;;4.90;;
23470;SDS011;11908;50.806;4.424;2022-12-28T09:45:02;14.18;;;4.45;;
23470;SDS011;11908;50.806;4.424;2022-12-28T09:55:56;12.73;;;4.72;;
23470;SDS011;11908;50.806;4.424;2022-12-28T09:58:24;8.30;;;4.88;;
23470;SDS011;11908;50.806;4.424;2022-12-28T10:00:53;8.30;;;3.85;;
23470;SDS011;11908;50.806;4.424;2022-12-28T10:03:37;6.85;;;3.55;;
23470;SDS011;11908;50.806;4.424;2022-12-28T10:06:12;8.63;;;3.63;;
23470;SDS011;11908;50.806;4.424;2022-12-28T10:08:46;8.80;;;3.90;;
23470;SDS011;11908;50.806;4.424;2022-12-28T10:11:33;6.68;;;3.55;;
23470;SDS011;11908;50.806;4.424;2022-12-28T10:14:21;8.02;;;3.72;;
23470;SDS011;11908;50.806;4.424;2022-12-28T10:16:51;4.30;;;3.10;;
23470;SDS011;11908;50.806;4.424;2022-12-28T10:19:18;7.95;;;3.70;;
23470;SDS011;11908;50.806;4.424;2022-12-28T10:21:47;11.85;;;3.20;;
23470;SDS011;11908;50.806;4.424;2022-12-28T10:24:30;7.35;;;3.80;;
23470;SDS011;11908;50.806;4.424;2022-12-28T10:26:57;9.25;;;3.97;;
23470;SDS011;11908;50.806;4.424;2022-12-28T10:29:25;8.35;;;3.42;;
23470;SDS011;11908;50.806;4.424;2022-12-28T10:31:55;12.25;;;3.42;;
23470;SDS011;11908;50.806;4.424;2022-12-28T10:34:33;9.02;;;3.13;;
23470;SDS011;11908;50.806;4.424;2022-12-28T10:37:11;10.15;;;3.67;;
23470;SDS011;11908;50.806;4.424;2022-12-28T10:39:39;7.10;;;2.80;;
23470;SDS011;11908;50.806;4.424;2022-12-28T10:42:45;10.30;;;3.10;;
23470;SDS011;11908;50.806;4.424;2022-12-28T10:45:05;7.10;;;3.17;;
23470;SDS011;11908;50.806;4.424;2022-12-28T10:47:42;12.80;;;3.28;;
23470;SDS011;11908;50.806;4.424;2022-12-28T10:53:04;11.07;;;2.97;;
23470;SDS011;11908;50.806;4.424;2022-12-28T10:55:40;9.95;;;3.72;;
23470;SDS011;11908;50.806;4.424;2022-12-28T10:58:18;8.02;;;3.20;;
23470;SDS011;11908;50.806;4.424;2022-12-28T11:00:52;7.28;;;3.28;;
23470;SDS011;11908;50.806;4.424;2022-12-28T11:03:22;11.25;;;3.78;;
23470;SDS011;11908;50.806;4.424;2022-12-28T11:05:59;9.02;;;3.38;;
23470;SDS011;11908;50.806;4.424;2022-12-28T11:09:03;6.25;;;2.70;;
23470;SDS011;11908;50.806;4.424;2022-12-28T11:11:41;9.93;;;3.30;;
23470;SDS011;11908;50.806;4.424;2022-12-28T11:17:18;12.75;;;2.92;;
23470;SDS011;11908;50.806;4.424;2022-12-28T11:19:44;10.02;;;3.63;;
23470;SDS011;11908;50.806;4.424;2022-12-28T11:22:16;7.90;;;3.65;;
23470;SDS011;11908;50.806;4.424;2022-12-28T11:24:48;9.27;;;3.40;;
23470;SDS011;11908;50.806;4.424;2022-12-28T11:27:15;8.65;;;2.70;;
23470;SDS011;11908;50.806;4.424;2022-12-28T11:29:44;8.13;;;3.25;;
23470;SDS011;11908;50.806;4.424;2022-12-28T11:32:22;7.13;;;3.15;;
23470;SDS011;11908;50.806;4.424;2022-12-28T11:34:50;8.57;;;2.83;;
23470;SDS011;11908;50.806;4.424;2022-12-28T11:37:18;15.40;;;2.80;;
23470;SDS011;11908;50.806;4.424;2022-12-28T11:39:44;10.23;;;2.97;;
23470;SDS011;11908;50.806;4.424;2022-12-28T11:45:03;9.32;;;2.67;;
23470;SDS011;11908;50.806;4.424;2022-12-28T11:47:32;15.13;;;2.85;;
23470;SDS011;11908;50.806;4.424;2022-12-28T11:53:01;7.93;;;2.80;;
23470;SDS011;11908;50.806;4.424;2022-12-28T11:55:35;15.98;;;3.28;;
23470;SDS011;11908;50.806;4.424;2022-12-28T12:00:56;10.27;;;2.75;;
23470;SDS011;11908;50.806;4.424;2022-12-28T12:11:45;7.30;;;3.25;;
23470;SDS011;11908;50.806;4.424;2022-12-28T12:15:05;13.50;;;3.10;;
23470;SDS011;11908;50.806;4.424;2022-12-28T12:19:56;11.15;;;3.05;;
23470;SDS011;11908;50.806;4.424;2022-12-28T12:22:29;8.18;;;3.03;;
23470;SDS011;11908;50.806;4.424;2022-12-28T12:27:45;11.32;;;3.15;;
23470;SDS011;11908;50.806;4.424;2022-12-28T12:30:17;5.63;;;2.22;;
23470;SDS011;11908;50.806;4.424;2022-12-28T12:32:46;9.57;;;2.33;;
23470;SDS011;11908;50.806;4.424;2022-12-28T12:35:21;8.88;;;2.88;;
23470;SDS011;11908;50.806;4.424;2022-12-28T12:40:39;7.60;;;2.63;;
23470;SDS011;11908;50.806;4.424;2022-12-28T12:49:09;7.32;;;2.63;;
23470;SDS011;11908;50.806;4.424;2022-12-28T12:54:57;8.05;;;2.53;;
23470;SDS011;11908;50.806;4.424;2022-12-28T13:00:31;5.20;;;2.55;;
23470;SDS011;11908;50.806;4.424;2022-12-28T13:03:15;6.03;;;2.63;;
23470;SDS011;11908;50.806;4.424;2022-12-28T13:06:03;13.27;;;2.90;;
23470;SDS011;11908;50.806;4.424;2022-12-28T13:08:38;5.80;;;2.60;;
23470;SDS011;11908;50.806;4.424;2022-12-28T13:11:26;9.77;;;2.47;;
23470;SDS011;11908;50.806;4.424;2022-12-28T13:13:53;9.93;;;2.83;;
23470;SDS011;11908;50.806;4.424;2022-12-28T13:16:23;8.27;;;3.13;;
23470;SDS011;11908;50.806;4.424;2022-12-28T13:18:52;4.10;;;2.50;;
23470;SDS011;11908;50.806;4.424;2022-12-28T13:21:22;7.95;;;2.33;;
23470;SDS011;11908;50.806;4.424;2022-12-28T13:23:50;5.45;;;2.28;;
23470;SDS011;11908;50.806;4.424;2022-12-28T13:26:24;9.35;;;2.50;;
23470;SDS011;11908;50.806;4.424;2022-12-28T13:29:01;8.13;;;2.20;;
23470;SDS011;11908;50.806;4.424;2022-12-28T13:31:37;7.05;;;2.17;;
23470;SDS011;11908;50.806;4.424;2022-12-28T13:34:04;5.38;;;2.08;;
23470;SDS011;11908;50.806;4.424;2022-12-28T13:36:51;5.93;;;2.22;;
23470;SDS011;11908;50.806;4.424;2022-12-28T13:39:23;10.55;;;2.72;;
23470;SDS011;11908;50.806;4.424;2022-12-28T13:41:55;5.18;;;2.20;;
23470;SDS011;11908;50.806;4.424;2022-12-28T13:47:12;6.80;;;2.47;;
23470;SDS011;11908;50.806;4.424;2022-12-28T13:50:01;7.35;;;2.05;;
23470;SDS011;11908;50.806;4.424;2022-12-28T13:52:36;4.57;;;2.28;;
23470;SDS011;11908;50.806;4.424;2022-12-28T13:55:17;8.15;;;2.80;;
23470;SDS011;11908;50.806;4.424;2022-12-28T13:57:47;9.77;;;2.60;;
23470;SDS011;11908;50.806;4.424;2022-12-28T14:00:16;6.10;;;2.33;;
23470;SDS011;11908;50.806;4.424;2022-12-28T14:02:43;7.15;;;2.58;;
23470;SDS011;11908;50.806;4.424;2022-12-28T14:05:14;8.65;;;2.40;;
23470;SDS011;11908;50.806;4.424;2022-12-28T14:07:44;8.07;;;2.53;;
23470;SDS011;11908;50.806;4.424;2022-12-28T14:10:11;6.55;;;2.13;;
23470;SDS011;11908;50.806;4.424;2022-12-28T14:12:37;5.88;;;2.22;;
23470;SDS011;11908;50.806;4.424;2022-12-28T14:15:03;10.43;;;3.00;;
23470;SDS011;11908;50.806;4.424;2022-12-28T14:17:30;5.95;;;2.63;;
23470;SDS011;11908;50.806;4.424;2022-12-28T14:19:56;4.70;;;2.13;;
23470;SDS011;11908;50.806;4.424;2022-12-28T14:22:33;6.30;;;2.45;;
23470;SDS011;11908;50.806;4.424;2022-12-28T14:25:02;8.43;;;2.60;;
23470;SDS011;11908;50.806;4.424;2022-12-28T14:27:33;5.32;;;2.90;;
23470;SDS011;11908;50.806;4.424;2022-12-28T14:30:02;4.13;;;2.00;;
23470;SDS011;11908;50.806;4.424;2022-12-28T14:32:30;6.63;;;2.15;;
23470;SDS011;11908;50.806;4.424;2022-12-28T14:34:58;7.20;;;2.20;;
23470;SDS011;11908;50.806;4.424;2022-12-28T14:37:26;8.15;;;2.55;;
23470;SDS011;11908;50.806;4.424;2022-12-28T14:39:59;5.80;;;2.05;;
23470;SDS011;11908;50.806;4.424;2022-12-28T14:42:27;9.00;;;2.30;;
23470;SDS011;11908;50.806;4.424;2022-12-28T14:44:54;4.03;;;1.80;;
23470;SDS011;11908;50.806;4.424;2022-12-28T14:47:31;7.25;;;2.10;;
23470;SDS011;11908;50.806;4.424;2022-12-28T14:49:58;10.13;;;2.13;;
23470;SDS011;11908;50.806;4.424;2022-12-28T14:55:21;11.30;;;2.80;;
23470;SDS011;11908;50.806;4.424;2022-12-28T14:57:50;6.50;;;2.47;;
23470;SDS011;11908;50.806;4.424;2022-12-28T15:00:33;6.13;;;2.20;;
23470;SDS011;11908;50.806;4.424;2022-12-28T15:06:16;9.68;;;2.70;;
23470;SDS011;11908;50.806;4.424;2022-12-28T15:08:47;5.13;;;2.40;;
23470;SDS011;11908;50.806;4.424;2022-12-28T15:11:15;7.30;;;2.30;;
23470;SDS011;11908;50.806;4.424;2022-12-28T15:13:42;4.95;;;2.38;;
23470;SDS011;11908;50.806;4.424;2022-12-28T15:16:08;7.72;;;2.67;;
23470;SDS011;11908;50.806;4.424;2022-12-28T15:18:37;5.88;;;2.22;;
23470;SDS011;11908;50.806;4.424;2022-12-28T15:21:09;7.40;;;2.92;;
23470;SDS011;11908;50.806;4.424;2022-12-28T15:23:39;5.82;;;2.65;;
23470;SDS011;11908;50.806;4.424;2022-12-28T15:26:06;5.32;;;2.35;;
23470;SDS011;11908;50.806;4.424;2022-12-28T15:28:32;8.65;;;2.33;;
23470;SDS011;11908;50.806;4.424;2022-12-28T15:30:58;5.80;;;2.20;;
23470;SDS011;11908;50.806;4.424;2022-12-28T15:33:23;7.65;;;2.67;;
23470;SDS011;11908;50.806;4.424;2022-12-28T15:35:49;6.43;;;2.42;;
23470;SDS011;11908;50.806;4.424;2022-12-28T15:38:14;8.57;;;2.75;;
23470;SDS011;11908;50.806;4.424;2022-12-28T15:40:40;6.82;;;2.67;;
23470;SDS011;11908;50.806;4.424;2022-12-28T15:43:06;6.05;;;2.50;;
23470;SDS011;11908;50.806;4.424;2022-12-28T15:45:31;9.38;;;3.53;;
23470;SDS011;11908;50.806;4.424;2022-12-28T15:47:57;4.38;;;2.40;;
23470;SDS011;11908;50.806;4.424;2022-12-28T15:50:23;7.28;;;3.30;;
23470;SDS011;11908;50.806;4.424;2022-12-28T15:52:48;9.38;;;3.05;;
23470;SDS011;11908;50.806;4.424;2022-12-28T15:55:14;6.43;;;2.70;;
23470;SDS011;11908;50.806;4.424;2022-12-28T15:57:40;3.38;;;2.03;;
23470;SDS011;11908;50.806;4.424;2022-12-28T16:00:06;9.27;;;4.28;;
23470;SDS011;11908;50.806;4.424;2022-12-28T16:02:32;6.75;;;3.00;;
23470;SDS011;11908;50.806;4.424;2022-12-28T16:04:58;6.60;;;2.83;;
23470;SDS011;11908;50.806;4.424;2022-12-28T16:07:24;4.70;;;2.90;;
23470;SDS011;11908;50.806;4.424;2022-12-28T16:09:49;4.20;;;2.33;;
23470;SDS011;11908;50.806;4.424;2022-12-28T16:12:15;10.30;;;2.95;;
23470;SDS011;11908;50.806;4.424;2022-12-28T16:14:42;8.35;;;4.00;;
23470;SDS011;11908;50.806;4.424;2022-12-28T16:17:09;9.35;;;3.80;;
23470;SDS011;11908;50.806;4.424;2022-12-28T16:19:34;9.05;;;3.60;;
23470;SDS011;11908;50.806;4.424;2022-12-28T16:22:00;3.60;;;2.47;;
23470;SDS011;11908;50.806;4.424;2022-12-28T16:24:26;7.70;;;3.72;;
23470;SDS011;11908;50.806;4.424;2022-12-28T16:26:53;5.32;;;2.80;;
23470;SDS011;11908;50.806;4.424;2022-12-28T16:29:18;5.82;;;2.25;;
23470;SDS011;11908;50.806;4.424;2022-12-28T16:31:44;5.63;;;2.40;;
23470;SDS011;11908;50.806;4.424;2022-12-28T16:34:14;6.32;;;2.58;;
23470;SDS011;11908;50.806;4.424;2022-12-28T16:36:41;5.80;;;2.17;;
23470;SDS011;11908;50.806;4.424;2022-12-28T16:39:11;5.22;;;2.63;;
23470;SDS011;11908;50.806;4.424;2022-12-28T16:41:39;6.20;;;2.55;;
23470;SDS011;11908;50.806;4.424;2022-12-28T16:44:15;8.07;;;3.80;;
23470;SDS011;11908;50.806;4.424;2022-12-28T16:46:43;4.88;;;2.58;;
23470;SDS011;11908;50.806;4.424;2022-12-28T16:49:10;5.82;;;2.63;;
23470;SDS011;11908;50.806;4.424;2022-12-28T16:51:38;6.18;;;3.35;;
23470;SDS011;11908;50.806;4.424;2022-12-28T16:54:05;6.70;;;3.17;;